Date,TemperatureHighF,TemperatureAvgF,TemperatureLowF,DewpointHighF,DewpointAvgF,DewpointLowF,HumidityHigh,HumidityAvg,HumidityLow,PressureMaxIn,PressureMinIn,WindSpeedMaxMPH,WindSpeedAvgMPH,GustSpeedMaxMPH,PrecipitationSumIn
2013-5-1,60.1,50.5,39.5,48.4,41.5,34.8,84,72,58,30.34,29.85,28,5,29,0.00
2013-5-2,40.5,33.7,31.8,35.6,32.4,31.0,98,95,82,30.50,30.30,26,4,26,1.32
2013-5-3,33.1,31.9,31.5,32.3,31.3,31.0,98,98,97,30.42,30.14,18,2,19,0.26
2013-5-4,47.9,42.9,32.2,47.1,42.2,31.5,99,97,96,30.14,29.98,10,2,11,0.94
2013-5-5,61.5,49.8,42.5,55.6,47.4,41.4,97,92,79,30.17,30.09,11,2,12,0.02
2013-5-6,58.7,49.0,45.9,51.9,47.2,44.7,97,94,78,30.15,30.10,9,2,11,0.00
2013-5-7,78.3,69.9,54.2,54.5,49.3,45.1,85,50,33,30.13,29.97,11,1,15,0.00
2013-5-8,71.6,61.7,53.6,59.5,53.5,47.8,95,76,53,30.03,29.94,10,1,10,0.11
2013-5-9,69.5,59.5,53.6,60.2,56.6,51.0,98,90,68,29.95,29.85,13,2,18,0.67
2013-5-10,66.6,55.5,48.0,54.3,49.2,45.9,96,81,56,30.07,29.94,15,2,17,0.00
2013-5-11,56.9,52.5,45.0,48.9,32.5,21.1,85,50,27,30.25,29.99,26,4,32,0.00
2013-5-12,61.4,49.5,35.9,30.0,26.3,22.5,72,43,23,30.32,30.17,12,2,15,0.00
2013-5-13,69.8,48.8,42.0,48.1,33.5,28.0,70,56,41,30.19,30.10,11,1,12,0.00
2013-5-14,94.9,84.3,61.2,65.6,59.3,44.6,80,45,32,30.10,29.60,20,4,22,0.00
2013-5-15,84.3,74.0,62.9,55.8,46.5,36.5,56,39,20,29.91,29.73,17,2,18,0.00
2013-5-16,82.3,69.8,59.5,66.2,58.3,48.4,82,67,51,29.92,29.79,15,2,15,0.00
2013-5-17,81.0,70.3,61.8,64.7,61.8,59.9,94,76,53,29.93,29.83,15,2,15,0.00
2013-5-18,82.8,72.9,60.8,66.3,63.3,59.1,95,73,54,29.95,29.76,17,3,17,0.00
2013-5-19,85.3,68.8,60.2,67.7,63.3,59.3,97,84,55,29.80,29.51,26,3,27,1.24
2013-5-20,78.0,66.0,59.6,65.1,60.1,58.2,97,83,57,29.67,29.54,18,4,20,0.58
2013-5-21,68.8,60.1,56.6,58.6,52.9,48.1,96,78,59,29.70,29.57,11,1,13,0.01
2013-5-22,62.6,56.9,53.2,57.9,53.0,50.0,95,87,78,29.92,29.67,14,2,15,0.22
2013-5-23,70.1,58.2,51.8,54.4,49.8,44.7,96,76,44,30.29,29.91,14,2,15,0.01
2013-5-24,70.8,60.1,47.0,52.5,47.5,42.0,85,65,44,30.40,30.18,17,3,18,0.00
2013-5-25,60.0,53.8,50.8,53.6,50.4,46.6,96,89,62,30.29,30.14,22,5,23,1.09
2013-5-26,60.2,56.3,50.8,58.9,54.5,49.0,97,94,89,30.18,29.90,19,4,22,1.11
2013-5-27,78.2,65.1,57.7,64.7,61.1,56.8,99,88,59,30.04,29.71,35,2,35,0.71
2013-5-28,81.3,70.0,62.6,68.1,64.7,61.7,99,84,59,29.78,29.63,15,2,15,0.49
2013-5-29,80.7,70.0,63.5,71.6,65.2,59.0,96,85,70,29.80,29.66,17,2,18,0.04
2013-5-30,73.5,68.2,62.2,67.6,62.8,60.5,95,83,72,29.69,29.57,19,4,19,0.08
2013-5-31,75.8,68.7,61.1,65.5,62.9,59.5,97,83,67,29.72,29.63,18,3,18,0.00